createdAt,value
2023-03-24T00:01:20.152Z,99668.06
2023-03-24T00:03:52.125Z,99654.72
2023-03-24T00:06:22.746Z,99643.22
2023-03-24T00:08:51.164Z,99652.19
2023-03-24T00:11:21.158Z,99645.81
2023-03-24T00:13:51.119Z,99643.56
2023-03-24T00:16:21.803Z,99640.56
2023-03-24T00:18:53.089Z,99633.00
2023-03-24T00:21:24.502Z,99633.94
2023-03-24T00:23:54.533Z,99625.69
2023-03-24T00:26:24.865Z,99621.09
2023-03-24T00:28:55.262Z,99616.34
2023-03-24T00:31:24.598Z,99609.88
2023-03-24T00:33:54.003Z,99597.09
2023-03-24T00:36:24.551Z,99599.78
2023-03-24T00:38:53.779Z,99590.97
2023-03-24T00:41:22.236Z,99587.34
2023-03-24T00:43:51.272Z,99582.94
2023-03-24T00:46:28.943Z,99584.63
2023-03-24T00:49:02.487Z,99576.59
2023-03-24T00:51:33.813Z,99578.91
2023-03-24T00:54:02.769Z,99566.34
2023-03-24T00:56:34.510Z,99564.06
2023-03-24T00:59:03.090Z,99557.34
2023-03-24T01:01:35.445Z,99552.53
2023-03-24T01:04:06.103Z,99552.13
2023-03-24T01:06:36.550Z,99536.78
2023-03-24T01:09:06.140Z,99534.66
2023-03-24T01:11:38.920Z,99531.69
2023-03-24T01:14:07.470Z,99533.97
2023-03-24T01:16:37.241Z,99514.47
2023-03-24T01:19:06.815Z,99511.97
2023-03-24T01:21:35.411Z,99514.53
2023-03-24T01:24:05.012Z,99502.97
2023-03-24T01:26:33.469Z,99501.56
2023-03-24T01:29:01.632Z,99492.50
2023-03-24T01:31:29.708Z,99499.44
2023-03-24T01:33:59.466Z,99481.63
2023-03-24T01:36:27.601Z,99487.66
2023-03-24T01:38:58.516Z,99486.00
2023-03-24T01:41:28.371Z,99481.09
2023-03-24T01:43:56.648Z,99466.25
2023-03-24T01:46:26.570Z,99468.75
2023-03-24T01:49:00.133Z,99471.00
2023-03-24T01:51:35.130Z,99452.81
2023-03-24T01:54:07.028Z,99447.09
2023-03-24T01:56:38.793Z,99460.56
2023-03-24T01:59:11.151Z,99444.00
2023-03-24T02:01:54.492Z,99424.75
2023-03-24T02:04:39.327Z,99428.06
2023-03-24T02:07:14.991Z,99417.75
2023-03-24T02:09:43.007Z,99423.47
2023-03-24T02:12:12.053Z,99407.34
2023-03-24T02:14:41.862Z,99400.81
2023-03-24T02:17:24.118Z,99389.72
2023-03-24T02:20:17.849Z,99395.19
2023-03-24T02:23:14.619Z,99387.38
2023-03-24T02:26:26.508Z,99402.69
2023-03-24T02:29:09.183Z,99375.84
2023-03-24T02:32:08.291Z,99374.81
2023-03-24T02:35:08.895Z,99362.88
2023-03-24T02:38:21.134Z,99358.69
2023-03-24T02:41:01.434Z,99351.53
2023-03-24T02:43:41.476Z,99357.84
2023-03-24T02:46:17.553Z,99348.56
2023-03-24T02:48:58.439Z,99347.13
2023-03-24T02:51:32.287Z,99359.50
2023-03-24T02:54:09.564Z,99358.06
2023-03-24T02:56:43.326Z,99343.38
2023-03-24T02:59:32.310Z,99336.91
2023-03-24T03:02:08.230Z,99334.59
2023-03-24T03:04:49.989Z,99340.47
2023-03-24T03:07:23.006Z,99336.66
2023-03-24T03:10:01.370Z,99339.63
2023-03-24T03:12:35.768Z,99347.56
2023-03-24T03:15:08.346Z,99339.81
2023-03-24T03:17:42.563Z,99329.75
2023-03-24T03:20:16.387Z,99336.03
2023-03-24T03:22:49.847Z,99341.69
2023-03-24T03:25:23.141Z,99340.84
2023-03-24T03:27:55.034Z,99342.13
2023-03-24T03:30:29.110Z,99372.34
2023-03-24T03:33:02.592Z,99380.50
2023-03-24T03:35:32.795Z,99389.53
2023-03-24T03:38:11.354Z,99404.81
2023-03-24T03:40:44.121Z,99394.13
2023-03-24T03:43:20.483Z,99402.84
2023-03-24T03:45:49.222Z,99418.28
2023-03-24T03:48:21.477Z,99407.47
2023-03-24T03:50:55.257Z,99429.25
2023-03-24T03:53:40.287Z,99438.69
2023-03-24T03:56:09.369Z,99437.00
2023-03-24T03:58:46.827Z,99454.19
2023-03-24T04:01:19.238Z,99459.91
2023-03-24T04:04:26.241Z,99463.59
2023-03-24T04:07:38.350Z,99469.41
2023-03-24T04:10:25.588Z,99480.72
2023-03-24T04:13:12.153Z,99482.56
2023-03-24T04:16:11.135Z,99485.78
2023-03-24T04:19:16.561Z,99492.88
2023-03-24T04:22:03.008Z,99500.28
2023-03-24T04:24:49.900Z,99504.31
2023-03-24T04:27:27.447Z,99505.63
2023-03-24T04:30:07.286Z,99523.59
2023-03-24T04:32:43.234Z,99525.31
2023-03-24T04:35:15.353Z,99526.13
2023-03-24T04:38:07.226Z,99522.94
2023-03-24T04:40:41.804Z,99543.88
2023-03-24T04:43:17.557Z,99553.31
2023-03-24T04:45:49.653Z,99562.22
2023-03-24T04:48:26.160Z,99579.59
2023-03-24T04:50:59.139Z,99567.88
2023-03-24T04:53:29.661Z,99578.63
2023-03-24T04:56:07.761Z,99569.69
2023-03-24T04:59:05.189Z,99582.59
2023-03-24T05:01:37.681Z,99578.03
2023-03-24T05:04:28.084Z,99577.84
2023-03-24T05:07:00.118Z,99573.03
2023-03-24T05:09:31.519Z,99578.88
2023-03-24T05:12:01.808Z,99575.47
2023-03-24T05:14:34.138Z,99569.50
2023-03-24T05:17:02.423Z,99587.75
2023-03-24T05:19:33.652Z,99591.28
2023-03-24T05:22:01.986Z,99600.94
2023-03-24T05:24:30.537Z,99624.53
2023-03-24T05:26:58.515Z,99605.91
2023-03-24T05:29:27.763Z,99616.81
2023-03-24T05:31:56.049Z,99615.63
2023-03-24T05:34:24.493Z,99619.03
2023-03-24T05:37:12.188Z,99621.84
2023-03-24T05:39:40.452Z,99634.16
2023-03-24T05:42:14.186Z,99629.84
2023-03-24T05:44:42.172Z,99639.25
2023-03-24T05:47:19.989Z,99635.81
2023-03-24T05:49:48.197Z,99645.22
2023-03-24T05:52:17.762Z,99648.66
2023-03-24T05:54:52.031Z,99662.56
2023-03-24T05:57:23.255Z,99667.41
2023-03-24T06:00:23.388Z,99653.31
2023-03-24T06:03:08.270Z,99660.44
2023-03-24T06:05:40.503Z,99684.16
2023-03-24T06:08:10.108Z,99680.75
2023-03-24T06:10:39.101Z,99669.88
2023-03-24T06:13:09.149Z,99680.22
2023-03-24T06:15:43.201Z,99689.78
2023-03-24T06:18:35.279Z,99698.25
2023-03-24T06:21:13.483Z,99691.47
2023-03-24T06:23:46.392Z,99689.91
2023-03-24T06:26:19.286Z,99695.50
2023-03-24T06:28:58.884Z,99705.38
2023-03-24T06:31:32.905Z,99714.69
2023-03-24T06:34:01.191Z,99727.53
2023-03-24T06:36:29.428Z,99737.09
2023-03-24T06:38:58.978Z,99724.16
2023-03-24T06:41:28.299Z,99718.34
2023-03-24T06:44:00.694Z,99719.28
2023-03-24T06:46:29.008Z,99724.53
2023-03-24T06:48:57.611Z,99724.72
2023-03-24T06:51:25.989Z,99732.69
2023-03-24T06:53:54.643Z,99744.59
2023-03-24T06:56:25.441Z,99739.50
2023-03-24T06:58:58.518Z,99766.53
2023-03-24T07:01:30.688Z,99739.72
2023-03-24T07:04:03.778Z,99748.16
2023-03-24T07:06:43.135Z,99747.59
2023-03-24T07:09:20.276Z,99762.69
2023-03-24T07:11:49.865Z,99769.16
2023-03-24T07:14:18.052Z,99757.06
2023-03-24T07:16:47.082Z,99760.81
2023-03-24T07:19:45.573Z,99770.88
2023-03-24T07:22:52.365Z,99766.25
2023-03-24T07:25:41.771Z,99780.88
2023-03-24T07:28:40.944Z,99788.09
2023-03-24T07:31:11.037Z,99784.25
2023-03-24T07:33:40.236Z,99780.41
2023-03-24T07:36:09.557Z,99800.00
2023-03-24T07:38:40.163Z,99793.16
2023-03-24T07:41:12.752Z,99788.66
2023-03-24T07:43:47.259Z,99800.69
2023-03-24T07:46:20.974Z,99805.47
2023-03-24T07:48:49.251Z,99807.97
2023-03-24T07:51:20.150Z,99820.47
2023-03-24T07:53:48.198Z,99816.44
2023-03-24T07:56:25.285Z,99824.69
2023-03-24T07:58:58.696Z,99828.53
2023-03-24T08:01:32.857Z,99822.25
2023-03-24T08:04:04.776Z,99827.91
2023-03-24T08:06:53.574Z,99846.16
2023-03-24T08:09:21.904Z,99831.63
2023-03-24T08:11:49.878Z,99830.53
2023-03-24T08:14:19.251Z,99835.47
2023-03-24T08:16:47.328Z,99836.16
2023-03-24T08:19:15.279Z,99834.81
2023-03-24T08:21:43.441Z,99844.88
2023-03-24T08:24:11.482Z,99864.16
2023-03-24T08:26:40.166Z,99859.03
2023-03-24T08:29:08.277Z,99851.34
2023-03-24T08:31:38.684Z,99856.53
2023-03-24T08:34:07.483Z,99855.75
2023-03-24T08:36:35.984Z,99866.28
2023-03-24T08:39:06.855Z,99884.00
2023-03-24T08:41:35.899Z,99872.44
2023-03-24T08:44:06.806Z,99885.59
2023-03-24T08:46:37.110Z,99873.50
2023-03-24T08:49:05.712Z,99886.81
2023-03-24T08:51:33.998Z,99875.94
2023-03-24T08:54:04.161Z,99869.44
2023-03-24T08:56:33.086Z,99879.97
2023-03-24T08:59:01.206Z,99879.88
2023-03-24T09:01:30.016Z,99907.38
2023-03-24T09:03:59.490Z,99913.78
2023-03-24T09:06:28.373Z,99906.94
2023-03-24T09:08:56.730Z,99898.75
2023-03-24T09:11:24.935Z,99891.16
2023-03-24T09:13:53.006Z,99897.03
2023-03-24T09:16:21.822Z,99905.75
2023-03-24T09:18:50.279Z,99917.78
2023-03-24T09:21:19.801Z,99886.41
2023-03-24T09:23:47.975Z,99918.66
2023-03-24T09:26:16.721Z,99921.19
2023-03-24T09:28:44.694Z,99927.94
2023-03-24T09:31:12.901Z,99919.97
2023-03-24T09:33:41.707Z,99927.84
2023-03-24T09:36:11.964Z,99898.28
2023-03-24T09:38:41.797Z,99942.41
2023-03-24T09:41:18.613Z,99925.63
2023-03-24T09:43:52.416Z,99919.34
2023-03-24T09:46:30.339Z,99935.13
2023-03-24T09:48:58.864Z,99941.09
2023-03-24T09:51:28.638Z,99933.47
2023-03-24T09:54:05.145Z,99938.56
2023-03-24T09:56:34.552Z,99945.69
2023-03-24T09:59:06.610Z,99948.69
2023-03-24T10:01:36.308Z,99952.56
2023-03-24T10:04:05.987Z,99948.06
2023-03-24T10:06:41.871Z,99937.91
2023-03-24T10:09:23.256Z,99944.09
2023-03-24T10:12:06.184Z,99940.38
2023-03-24T10:14:48.041Z,99964.34
2023-03-24T10:17:24.504Z,99969.28
2023-03-24T10:20:00.224Z,99963.34
2023-03-24T10:22:33.468Z,99970.50
2023-03-24T10:25:12.352Z,99974.78
2023-03-24T10:27:46.188Z,99979.69
2023-03-24T10:30:18.699Z,99972.25
2023-03-24T10:32:47.700Z,99971.13
2023-03-24T10:35:19.426Z,99967.63
2023-03-24T10:37:47.391Z,99978.16
2023-03-24T10:40:20.718Z,99954.16
2023-03-24T10:43:06.675Z,99976.88
2023-03-24T10:45:40.998Z,99964.84
2023-03-24T10:48:09.442Z,99977.66
2023-03-24T10:50:43.655Z,99961.72
2023-03-24T10:53:19.628Z,99972.09
2023-03-24T10:55:50.750Z,99973.72
2023-03-24T10:58:27.027Z,99976.91
2023-03-24T11:00:56.450Z,99973.84
2023-03-24T11:03:30.149Z,99983.09
2023-03-24T11:06:03.574Z,99986.91
2023-03-24T11:08:35.734Z,99988.03
2023-03-24T11:11:17.499Z,99990.50
2023-03-24T11:13:56.633Z,99994.66
2023-03-24T11:16:31.398Z,99997.00
2023-03-24T11:19:02.403Z,99985.09
2023-03-24T11:21:33.323Z,99995.91
2023-03-24T11:24:04.239Z,99990.22
2023-03-24T11:26:36.190Z,100002.88
2023-03-24T11:29:07.603Z,99987.59
2023-03-24T11:31:39.352Z,99995.66
2023-03-24T11:34:11.590Z,100000.97
2023-03-24T11:36:50.397Z,100010.66
2023-03-24T11:39:21.904Z,100011.25
2023-03-24T11:42:18.385Z,100003.47
2023-03-24T11:44:49.477Z,99997.56
2023-03-24T11:47:24.208Z,99987.94
2023-03-24T11:49:59.561Z,100006.53
2023-03-24T11:52:32.841Z,100011.25
2023-03-24T11:55:01.149Z,99991.84
2023-03-24T11:57:45.200Z,100006.69
2023-03-24T12:00:21.284Z,100005.66
2023-03-24T12:03:04.543Z,99999.81
2023-03-24T12:05:39.940Z,99994.44
2023-03-24T12:08:24.139Z,99995.34
2023-03-24T12:11:02.537Z,99989.53
2023-03-24T12:13:37.617Z,99997.41
2023-03-24T12:16:29.953Z,99994.25
2023-03-24T12:19:29.216Z,99978.75
2023-03-24T12:22:07.558Z,99989.81
2023-03-24T12:24:54.244Z,99996.81
2023-03-24T12:27:34.990Z,99994.53
2023-03-24T12:30:09.028Z,99992.16
2023-03-24T12:32:55.464Z,99996.28
2023-03-24T12:35:39.922Z,99997.22
2023-03-24T12:38:20.480Z,99996.25
2023-03-24T12:41:02.032Z,100012.41
2023-03-24T12:43:40.168Z,99987.44
2023-03-24T12:46:22.541Z,99985.34
2023-03-24T12:49:11.273Z,99979.97
2023-03-24T12:51:48.850Z,99972.66
2023-03-24T12:54:32.614Z,99975.81
2023-03-24T12:57:03.396Z,99978.94
2023-03-24T12:59:38.090Z,99987.25
2023-03-24T13:02:23.782Z,99978.06
2023-03-24T13:04:56.458Z,99970.94
2023-03-24T13:07:29.048Z,99970.50
2023-03-24T13:10:04.377Z,99972.63
2023-03-24T13:12:39.534Z,99974.91
2023-03-24T13:15:17.527Z,99969.22
2023-03-24T13:17:53.235Z,99971.41
2023-03-24T13:20:27.462Z,99975.19
2023-03-24T13:22:56.794Z,99981.88
2023-03-24T13:25:33.088Z,99967.78
2023-03-24T13:28:08.832Z,99973.59
2023-03-24T13:30:39.655Z,99979.69
2023-03-24T13:33:15.581Z,99977.47
2023-03-24T13:35:58.708Z,99981.41
2023-03-24T13:38:35.144Z,99972.28
2023-03-24T13:41:07.520Z,99985.38
2023-03-24T13:43:36.556Z,99964.22
2023-03-24T13:46:11.220Z,99966.78
2023-03-24T13:48:43.788Z,99991.47
2023-03-24T13:51:18.320Z,99981.28
2023-03-24T13:53:51.220Z,99974.16
2023-03-24T13:56:26.633Z,99976.34
2023-03-24T13:59:23.515Z,99973.28
2023-03-24T14:02:20.292Z,99956.41
2023-03-24T14:04:51.601Z,99959.38
2023-03-24T14:07:44.504Z,99965.88
2023-03-24T14:10:45.394Z,99969.16
2023-03-24T14:13:38.147Z,99973.06
2023-03-24T14:16:35.316Z,99971.94
2023-03-24T14:19:23.125Z,99962.56
2023-03-24T14:22:15.731Z,99965.78
2023-03-24T14:24:46.161Z,99965.41
2023-03-24T14:27:30.025Z,99947.84
2023-03-24T14:30:00.961Z,99962.09
2023-03-24T14:32:29.163Z,99955.53
2023-03-24T14:34:59.590Z,99954.78
2023-03-24T14:37:31.066Z,99941.94
2023-03-24T14:39:59.757Z,99942.22
2023-03-24T14:42:49.796Z,99940.59
2023-03-24T14:46:04.302Z,99943.72
2023-03-24T14:48:56.750Z,99950.56
2023-03-24T14:51:37.925Z,99935.06
2023-03-24T14:54:14.485Z,99933.94
2023-03-24T14:56:45.533Z,99968.34
2023-03-24T14:59:23.568Z,99928.06
2023-03-24T15:02:00.611Z,99927.78
2023-03-24T15:04:28.646Z,99932.38
2023-03-24T15:06:56.811Z,99941.72
2023-03-24T15:09:26.185Z,99939.59
2023-03-24T15:11:54.297Z,99940.75
2023-03-24T15:14:25.296Z,99951.13
2023-03-24T15:16:57.405Z,99936.75
2023-03-24T15:19:27.604Z,99956.75
2023-03-24T15:22:01.760Z,99937.53
2023-03-24T15:24:36.934Z,99941.13
2023-03-24T15:27:24.946Z,99930.00
2023-03-24T15:29:59.178Z,99927.44
2023-03-24T15:32:31.770Z,99928.72
2023-03-24T15:35:01.876Z,99926.97
2023-03-24T15:37:34.293Z,99933.19
2023-03-24T15:42:42.961Z,99931.88
2023-03-24T15:45:21.172Z,99914.53
2023-03-24T15:47:52.684Z,99957.91
2023-03-24T15:50:33.651Z,99918.91
2023-03-24T15:53:04.526Z,99925.06
2023-03-24T15:55:36.045Z,99910.72
2023-03-24T15:58:22.223Z,99921.69
2023-03-24T16:00:54.316Z,99916.03
2023-03-24T16:03:26.776Z,99911.28
2023-03-24T16:05:57.173Z,99904.00
2023-03-24T16:08:29.102Z,99901.94
2023-03-24T16:11:00.482Z,99898.59
2023-03-24T16:13:29.165Z,99890.88
2023-03-24T16:15:59.094Z,99900.56
2023-03-24T16:18:32.983Z,99899.38
2023-03-24T16:21:02.843Z,99894.22
2023-03-24T16:23:31.730Z,99925.34
2023-03-24T16:26:01.398Z,99909.72
2023-03-24T16:28:30.330Z,99903.03
2023-03-24T16:31:03.107Z,99899.66
2023-03-24T16:33:32.329Z,99901.28
2023-03-24T16:36:01.259Z,99900.09
2023-03-24T16:38:29.987Z,99896.66
2023-03-24T16:40:58.778Z,99896.84
2023-03-24T16:43:29.728Z,99905.25
2023-03-24T16:45:58.367Z,99923.94
2023-03-24T16:48:26.737Z,99905.75
2023-03-24T16:50:56.475Z,99930.56
2023-03-24T16:53:24.585Z,99920.25
2023-03-24T16:55:53.008Z,99924.91
2023-03-24T16:58:20.977Z,99922.50
2023-03-24T17:00:52.136Z,99917.84
2023-03-24T17:03:20.296Z,99924.97
2023-03-24T17:05:51.281Z,99932.16
2023-03-24T17:08:20.091Z,99923.78
2023-03-24T17:10:51.911Z,99924.63
2023-03-24T17:13:23.156Z,99915.50
2023-03-24T17:15:53.236Z,99929.34
2023-03-24T17:18:21.525Z,99922.03
2023-03-24T17:20:50.278Z,99948.00
2023-03-24T17:23:18.990Z,99924.78
2023-03-24T17:25:47.113Z,99913.25
2023-03-24T17:28:16.439Z,99944.09
2023-03-24T17:30:44.952Z,99928.38
2023-03-24T17:33:15.850Z,99923.78
2023-03-24T17:35:46.671Z,99950.44
2023-03-24T17:38:16.602Z,99933.63
2023-03-24T17:40:46.538Z,99937.06
2023-03-24T17:43:15.028Z,99930.50
2023-03-24T17:45:44.024Z,99934.59
2023-03-24T17:48:12.187Z,99926.41
2023-03-24T17:50:41.920Z,99930.84
2023-03-24T17:53:13.502Z,99935.66
2023-03-24T17:55:41.784Z,99935.88
2023-03-24T17:58:10.031Z,99934.88
2023-03-24T18:00:38.212Z,99937.66
2023-03-24T18:03:06.565Z,99935.84
2023-03-24T18:05:35.025Z,99926.41
2023-03-24T18:08:06.373Z,99932.47
2023-03-24T18:10:36.304Z,99929.66
2023-03-24T18:13:04.905Z,99949.00
2023-03-24T18:15:33.475Z,99925.13
2023-03-24T18:18:02.041Z,99917.97
2023-03-24T18:20:30.357Z,99935.56
2023-03-24T18:22:58.658Z,99922.22
2023-03-24T18:25:28.238Z,99921.28
2023-03-24T18:27:57.179Z,99915.09
2023-03-24T18:30:25.572Z,99924.19
2023-03-24T18:32:53.927Z,99923.22
2023-03-24T18:35:22.557Z,99932.72
2023-03-24T18:37:50.576Z,99929.84
2023-03-24T18:40:18.734Z,99926.44
2023-03-24T18:42:48.573Z,99927.03
2023-03-24T18:45:18.669Z,99924.25
2023-03-24T18:47:47.732Z,99937.88
2023-03-24T18:50:16.204Z,99916.81
2023-03-24T18:52:44.449Z,99910.44
2023-03-24T18:55:14.565Z,99927.69
2023-03-24T18:57:42.540Z,99917.59
2023-03-24T19:00:15.478Z,99931.41
2023-03-24T19:02:43.632Z,99924.00
2023-03-24T19:05:14.259Z,99920.56
2023-03-24T19:07:42.278Z,99925.72
2023-03-24T19:10:11.314Z,99918.81
2023-03-24T19:12:39.410Z,99918.03
2023-03-24T19:15:08.368Z,99921.91
2023-03-24T19:17:38.586Z,99918.34
2023-03-24T19:20:08.861Z,99909.69
2023-03-24T19:22:37.652Z,99902.59
2023-03-24T19:25:08.462Z,99916.53
2023-03-24T19:27:36.724Z,99909.00
2023-03-24T19:30:05.628Z,99912.50
2023-03-24T19:32:34.316Z,99905.25
2023-03-24T19:35:04.454Z,99898.50
2023-03-24T19:37:32.937Z,99900.56
2023-03-24T19:40:01.269Z,99897.78
2023-03-24T19:42:32.849Z,99895.56
2023-03-24T19:45:01.559Z,99885.84
2023-03-24T19:47:29.924Z,99886.22
2023-03-24T19:49:58.213Z,99899.91
2023-03-24T19:52:27.598Z,99895.72
2023-03-24T19:54:56.261Z,99895.69
2023-03-24T19:57:25.073Z,99885.69
2023-03-24T19:59:53.397Z,99892.75
2023-03-24T20:02:21.849Z,99884.97
2023-03-24T20:04:55.043Z,99882.50
2023-03-24T20:07:24.275Z,99882.91
2023-03-24T20:09:54.120Z,99886.34
2023-03-24T20:12:22.064Z,99883.16
2023-03-24T20:14:50.162Z,99888.38
2023-03-24T20:17:19.809Z,99879.88
2023-03-24T20:19:48.653Z,99879.88
2023-03-24T20:22:16.944Z,99866.56
2023-03-24T20:24:47.692Z,99869.38
2023-03-24T20:27:18.026Z,99869.16
2023-03-24T20:29:46.539Z,99895.06
2023-03-24T20:32:15.610Z,99876.47
2023-03-24T20:34:43.645Z,99867.44
2023-03-24T20:37:11.782Z,99867.06
2023-03-24T20:39:43.294Z,99859.09
2023-03-24T20:42:11.499Z,99862.09
2023-03-24T20:44:41.024Z,99860.69
2023-03-24T20:47:08.923Z,99866.25
2023-03-24T20:49:37.503Z,99860.41
2023-03-24T20:52:06.136Z,99863.56
2023-03-24T20:54:34.128Z,99863.72
2023-03-24T20:57:02.618Z,99855.84
2023-03-24T20:59:30.947Z,99858.50
2023-03-24T21:02:02.121Z,99844.97
2023-03-24T21:04:30.335Z,99853.03
2023-03-24T21:06:58.572Z,99829.63
2023-03-24T21:09:27.708Z,99842.16
2023-03-24T21:11:55.920Z,99841.75
2023-03-24T21:14:23.890Z,99837.78
2023-03-24T21:16:52.422Z,99833.03
2023-03-24T21:19:22.791Z,99843.91
2023-03-24T21:21:50.959Z,99830.69
2023-03-24T21:24:19.034Z,99849.47
2023-03-24T21:26:49.386Z,99841.03
2023-03-24T21:29:17.692Z,99840.34
2023-03-24T21:31:45.967Z,99849.84
2023-03-24T21:34:13.848Z,99841.47
2023-03-24T21:36:43.275Z,99841.38
2023-03-24T21:39:11.999Z,99840.34
2023-03-24T21:41:40.203Z,99835.84
2023-03-24T21:44:09.429Z,99835.84
2023-03-24T21:46:37.811Z,99826.56
2023-03-24T21:49:06.602Z,99849.66
2023-03-24T21:51:37.380Z,99840.00
2023-03-24T21:54:08.792Z,99831.63
2023-03-24T21:56:38.044Z,99857.34
2023-03-24T21:59:06.258Z,99839.53
2023-03-24T22:01:35.921Z,99851.34
2023-03-24T22:04:04.676Z,99842.53
2023-03-24T22:06:37.697Z,99836.25
2023-03-24T22:09:10.321Z,99826.25
2023-03-24T22:11:42.592Z,99829.41
2023-03-24T22:14:11.170Z,99825.38
2023-03-24T22:16:39.285Z,99829.31
2023-03-24T22:19:07.322Z,99817.56
2023-03-24T22:21:36.359Z,99827.78
2023-03-24T22:24:08.138Z,99821.16
2023-03-24T22:26:36.213Z,99825.53
2023-03-24T22:29:04.868Z,99836.97
2023-03-24T22:31:32.779Z,99824.03
2023-03-24T22:34:00.687Z,99827.88
2023-03-24T22:36:28.514Z,99829.19
2023-03-24T22:38:56.666Z,99815.41
2023-03-24T22:41:26.255Z,99850.41
2023-03-24T22:43:54.463Z,99836.59
2023-03-24T22:46:24.390Z,99825.91
2023-03-24T22:48:52.732Z,99829.19
2023-03-24T22:51:20.970Z,99815.31
2023-03-24T22:53:50.469Z,99844.13
2023-03-24T22:56:18.582Z,99841.50
2023-03-24T22:58:47.858Z,99864.47
2023-03-24T23:01:16.466Z,99830.25
2023-03-24T23:03:44.741Z,99829.75
2023-03-24T23:06:16.005Z,99819.16
2023-03-24T23:08:44.699Z,99828.34
2023-03-24T23:11:12.833Z,99834.72
2023-03-24T23:13:40.896Z,99817.16
2023-03-24T23:16:10.864Z,99830.69
2023-03-24T23:18:39.360Z,99833.97
2023-03-24T23:21:10.183Z,99833.69
2023-03-24T23:23:40.167Z,99824.13
2023-03-24T23:26:13.846Z,99820.09
2023-03-24T23:28:54.704Z,99811.84
2023-03-24T23:31:26.219Z,99827.31
2023-03-24T23:33:56.053Z,99832.47
2023-03-24T23:36:26.339Z,99836.34
2023-03-24T23:38:55.055Z,99815.19
2023-03-24T23:41:24.489Z,99824.81
2023-03-24T23:43:54.254Z,99816.25
2023-03-24T23:46:23.887Z,99837.38
2023-03-24T23:48:53.394Z,99832.84
2023-03-24T23:51:22.329Z,99826.38
2023-03-24T23:53:50.860Z,99827.97
2023-03-24T23:56:21.607Z,99821.16
2023-03-24T23:58:49.802Z,99876.97
